Time;durP1;ratioP1;P1;durP2;ratioP2;P2;SDS_P1;SDS_P2;PMS_P1;PMS_P2;Temp;Humidity;BMP_temperature;BMP_pressure;BME280_temperature;BME280_humidity;BME280_pressure;Samples;Min_cycle;Max_cycle;Signal;HPM_P1;HPM_P2
2023/08/25 00:02:09;;;;;;;3.58;1.60;;;;;;;;;;4923540;29;20058;-70
2023/08/25 00:04:36;;;;;;;4.93;1.50;;;;;;;;;;4928799;29;20079;-70
2023/08/25 00:07:04;;;;;;;6.00;1.80;;;;;;;;;;4919668;29;20043;-70
2023/08/25 00:09:31;;;;;;;3.88;1.42;;;;;;;;;;4914394;29;20573;-70
2023/08/25 00:11:59;;;;;;;7.03;1.50;;;;;;;;;;4913357;29;20415;-70
2023/08/25 00:14:27;;;;;;;3.50;1.50;;;;;;;;;;4915462;29;20071;-69
2023/08/25 00:16:55;;;;;;;4.07;1.58;;;;;;;;;;4912911;29;20054;-69
2023/08/25 00:19:23;;;;;;;2.05;1.60;;;;;;;;;;4921790;29;20130;-70
2023/08/25 00:21:50;;;;;;;6.32;2.00;;;;;;;;;;4914497;29;20048;-69
2023/08/25 00:24:18;;;;;;;6.80;2.00;;;;;;;;;;4914836;29;20563;-69
2023/08/25 00:26:45;;;;;;;3.38;1.80;;;;;;;;;;4920565;29;20111;-69
2023/08/25 00:29:13;;;;;;;4.68;1.95;;;;;;;;;;4916224;29;20063;-69
2023/08/25 00:31:41;;;;;;;5.78;2.10;;;;;;;;;;4916833;29;20186;-69
2023/08/25 00:34:09;;;;;;;7.63;1.92;;;;;;;;;;4912202;29;20409;-69
2023/08/25 00:36:37;;;;;;;10.00;1.88;;;;;;;;;;4912561;29;20380;-69
2023/08/25 00:39:04;;;;;;;3.50;1.92;;;;;;;;;;4917122;29;20110;-69
2023/08/25 00:41:32;;;;;;;3.28;1.88;;;;;;;;;;4901596;29;20122;-69
2023/08/25 00:44:00;;;;;;;3.88;1.88;;;;;;;;;;4911635;29;20126;-69
2023/08/25 00:46:28;;;;;;;3.75;1.30;;;;;;;;;;4910338;29;20154;-69
2023/08/25 00:48:56;;;;;;;2.88;2.05;;;;;;;;;;4913229;29;20123;-69
2023/08/25 00:51:24;;;;;;;6.78;2.00;;;;;;;;;;4911921;29;20052;-69
2023/08/25 00:53:52;;;;;;;2.10;1.80;;;;;;;;;;5003722;23;20051;-80
2023/08/25 00:56:20;;;;;;;3.35;1.95;;;;;;;;;;4923045;29;20047;-80
2023/08/25 00:58:48;;;;;;;2.88;1.80;;;;;;;;;;4923966;29;20054;-79
2023/08/25 01:01:17;;;;;;;2.35;1.70;;;;;;;;;;4929782;29;20075;-79
2023/08/25 01:03:48;;;;;;;4.20;2.33;;;;;;;;;;4929751;29;20481;-80
2023/08/25 01:06:15;;;;;;;3.05;1.85;;;;;;;;;;4947465;28;20051;-80
2023/08/25 01:08:43;;;;;;;3.63;1.63;;;;;;;;;;4927815;29;20098;-80
2023/08/25 01:11:37;;;;;;;3.35;1.98;;;;;;;;;;4929190;29;20058;-80
2023/08/25 01:14:08;;;;;;;2.70;1.70;;;;;;;;;;4903694;29;20044;-80
2023/08/25 01:16:37;;;;;;;5.38;2.10;;;;;;;;;;4920537;29;20676;-80
2023/08/25 01:19:05;;;;;;;3.67;1.60;;;;;;;;;;4928851;29;20059;-80
2023/08/25 01:21:35;;;;;;;9.50;2.70;;;;;;;;;;4927190;29;20055;-80
2023/08/25 01:24:03;;;;;;;3.85;1.55;;;;;;;;;;4948949;29;20040;-80
2023/08/25 01:26:30;;;;;;;2.63;1.63;;;;;;;;;;4929043;29;20047;-80
2023/08/25 01:28:58;;;;;;;4.53;1.70;;;;;;;;;;4930219;29;20142;-80
2023/08/25 01:31:27;;;;;;;5.80;2.17;;;;;;;;;;4947250;29;20063;-80
2023/08/25 01:33:55;;;;;;;4.93;2.20;;;;;;;;;;4946875;29;20060;-80
2023/08/25 01:36:37;;;;;;;2.08;1.88;;;;;;;;;;4933078;29;20043;-80
2023/08/25 01:39:08;;;;;;;4.15;2.30;;;;;;;;;;4948757;29;20108;-79
2023/08/25 01:41:42;;;;;;;3.33;2.30;;;;;;;;;;4934034;29;20419;-80
2023/08/25 01:44:10;;;;;;;4.47;2.08;;;;;;;;;;4944669;29;20044;-80
2023/08/25 01:46:39;;;;;;;6.82;2.35;;;;;;;;;;4930281;29;20052;-80
2023/08/25 01:49:07;;;;;;;2.80;2.20;;;;;;;;;;4944799;29;20036;-80
2023/08/25 01:51:34;;;;;;;7.57;2.53;;;;;;;;;;4930744;29;20051;-80
2023/08/25 01:54:03;;;;;;;3.35;2.30;;;;;;;;;;4944314;28;20058;-80
2023/08/25 01:56:30;;;;;;;4.63;2.15;;;;;;;;;;4923925;29;20506;-80
2023/08/25 01:58:59;;;;;;;3.45;1.90;;;;;;;;;;4951124;29;20048;-80
2023/08/25 02:01:28;;;;;;;4.53;2.30;;;;;;;;;;4932268;29;20052;-79
2023/08/25 02:03:56;;;;;;;2.25;1.98;;;;;;;;;;4934979;29;20051;-80
2023/08/25 02:06:25;;;;;;;4.00;2.65;;;;;;;;;;4941448;28;20048;-80
2023/08/25 02:08:53;;;;;;;3.92;2.30;;;;;;;;;;4926618;29;20050;-80
2023/08/25 02:11:21;;;;;;;4.13;2.25;;;;;;;;;;4940481;29;20480;-80
2023/08/25 02:13:48;;;;;;;4.47;2.25;;;;;;;;;;4942187;29;20052;-80
2023/08/25 02:16:16;;;;;;;5.07;2.58;;;;;;;;;;4927881;29;20047;-80
2023/08/25 02:18:44;;;;;;;4.75;2.67;;;;;;;;;;4936153;29;20050;-80
2023/08/25 02:21:11;;;;;;;6.32;3.30;;;;;;;;;;4941812;29;20516;-80
2023/08/25 02:23:40;;;;;;;3.15;2.70;;;;;;;;;;4933729;29;20048;-80
2023/08/25 02:26:07;;;;;;;9.02;4.35;;;;;;;;;;4945688;28;20091;-79
2023/08/25 02:28:35;;;;;;;8.90;4.60;;;;;;;;;;4944356;29;20047;-80
2023/08/25 02:31:03;;;;;;;7.82;5.00;;;;;;;;;;4929440;29;20050;-80
2023/08/25 02:33:34;;;;;;;9.98;5.55;;;;;;;;;;4931963;29;20489;-80
2023/08/25 02:36:01;;;;;;;13.75;7.50;;;;;;;;;;4931038;29;20051;-80
2023/08/25 02:38:29;;;;;;;12.60;7.80;;;;;;;;;;4945748;29;20055;-79
2023/08/25 02:40:56;;;;;;;18.50;10.85;;;;;;;;;;4924400;29;20066;-79
2023/08/25 02:43:24;;;;;;;16.02;10.70;;;;;;;;;;4925871;29;20490;-80
2023/08/25 02:45:51;;;;;;;15.65;8.93;;;;;;;;;;4931456;29;20052;-80
2023/08/25 02:48:18;;;;;;;12.68;7.65;;;;;;;;;;4931403;29;20055;-79
2023/08/25 02:50:46;;;;;;;15.40;9.57;;;;;;;;;;4931444;29;20052;-79
2023/08/25 02:53:14;;;;;;;14.00;8.02;;;;;;;;;;4925143;29;20111;-79
2023/08/25 02:55:41;;;;;;;18.80;10.05;;;;;;;;;;4926495;29;20421;-80
2023/08/25 02:58:09;;;;;;;16.00;9.43;;;;;;;;;;4929505;29;20051;-80
2023/08/25 03:00:36;;;;;;;14.95;10.02;;;;;;;;;;4946072;29;20052;-80
2023/08/25 03:03:03;;;;;;;13.75;7.50;;;;;;;;;;4930119;29;20054;-80
2023/08/25 03:05:31;;;;;;;15.23;7.63;;;;;;;;;;4929179;29;20047;-79
2023/08/25 03:07:59;;;;;;;14.93;7.68;;;;;;;;;;4923653;29;20430;-80
2023/08/25 03:10:26;;;;;;;10.80;6.72;;;;;;;;;;4945916;29;20071;-79
2023/08/25 03:12:54;;;;;;;11.45;6.60;;;;;;;;;;4947421;29;20043;-79
2023/08/25 03:15:22;;;;;;;11.07;6.07;;;;;;;;;;4924975;29;20039;-79
2023/08/25 03:17:49;;;;;;;10.32;5.75;;;;;;;;;;4935799;29;20505;-79
2023/08/25 03:20:18;;;;;;;9.52;6.40;;;;;;;;;;4945677;29;20510;-80
2023/08/25 03:22:45;;;;;;;13.23;5.80;;;;;;;;;;4932452;29;20050;-80
2023/08/25 03:25:12;;;;;;;13.02;6.20;;;;;;;;;;4927043;29;20054;-80
2023/08/25 03:27:40;;;;;;;14.10;6.18;;;;;;;;;;4941414;29;20532;-79
2023/08/25 03:30:08;;;;;;;8.38;5.55;;;;;;;;;;4922031;29;20058;-80
2023/08/25 03:32:35;;;;;;;8.27;5.55;;;;;;;;;;4922026;29;20052;-80
2023/08/25 03:35:03;;;;;;;7.18;4.82;;;;;;;;;;4942767;28;20059;-80
2023/08/25 03:37:31;;;;;;;11.40;5.45;;;;;;;;;;4926001;29;20055;-79
2023/08/25 03:40:02;;;;;;;;;;;;;;;;;;4947838;29;20055;-79
2023/08/25 03:42:30;;;;;;;7.18;4.07;;;;;;;;;;4923033;29;20095;-80
2023/08/25 03:44:57;;;;;;;7.07;4.80;;;;;;;;;;4943117;29;20063;-80
2023/08/25 03:47:26;;;;;;;5.53;3.50;;;;;;;;;;4943799;29;20067;-79
2023/08/25 03:49:54;;;;;;;4.78;3.85;;;;;;;;;;4925215;29;20080;-79
2023/08/25 03:52:21;;;;;;;6.30;3.83;;;;;;;;;;4941634;29;20059;-79
2023/08/25 03:54:49;;;;;;;8.48;3.10;;;;;;;;;;4928575;29;20259;-79
2023/08/25 03:57:17;;;;;;;5.28;2.88;;;;;;;;;;4926422;29;20656;-79
2023/08/25 03:59:46;;;;;;;3.63;2.72;;;;;;;;;;4937632;28;20064;-79
2023/08/25 04:02:13;;;;;;;9.38;3.25;;;;;;;;;;4934059;29;20047;-80
2023/08/25 04:04:41;;;;;;;6.70;3.60;;;;;;;;;;4940856;28;20355;-80
2023/08/25 04:07:09;;;;;;;5.35;3.40;;;;;;;;;;4930794;29;20055;-80
2023/08/25 04:09:36;;;;;;;4.70;3.13;;;;;;;;;;4926420;29;20048;-80
2023/08/25 04:12:04;;;;;;;7.03;3.63;;;;;;;;;;4946397;29;20533;-79
2023/08/25 04:14:31;;;;;;;6.53;3.05;;;;;;;;;;4929199;29;20051;-80
2023/08/25 04:16:59;;;;;;;7.50;3.10;;;;;;;;;;4941440;29;20055;-79
2023/08/25 04:19:26;;;;;;;3.55;2.92;;;;;;;;;;4941117;29;20341;-80
2023/08/25 04:21:54;;;;;;;5.78;3.15;;;;;;;;;;4929499;29;20054;-80
2023/08/25 04:24:21;;;;;;;5.90;2.92;;;;;;;;;;4929242;29;20043;-79
2023/08/25 04:26:49;;;;;;;6.82;2.75;;;;;;;;;;4932500;29;20469;-79
2023/08/25 04:29:17;;;;;;;4.90;2.70;;;;;;;;;;4927290;29;20107;-79
2023/08/25 04:31:44;;;;;;;4.15;2.95;;;;;;;;;;4931694;29;20046;-78
2023/08/25 04:34:19;;;;;;;5.85;3.00;;;;;;;;;;4932707;29;20608;-79
2023/08/25 04:36:46;;;;;;;6.03;3.33;;;;;;;;;;4946373;28;20051;-80
2023/08/25 04:39:14;;;;;;;6.43;3.40;;;;;;;;;;4926191;29;20416;-80
2023/08/25 04:41:42;;;;;;;4.18;3.00;;;;;;;;;;4946986;29;20403;-79
2023/08/25 04:44:10;;;;;;;2.78;2.50;;;;;;;;;;4932039;29;20051;-79
2023/08/25 04:46:38;;;;;;;6.82;3.33;;;;;;;;;;4927237;29;20032;-80
2023/08/25 04:49:05;;;;;;;3.35;3.05;;;;;;;;;;4930520;29;20163;-79
2023/08/25 04:51:36;;;;;;;4.73;3.27;;;;;;;;;;4932361;29;20056;-80
2023/08/25 04:54:07;;;;;;;5.00;2.80;;;;;;;;;;4928974;29;20063;-80
2023/08/25 04:56:36;;;;;;;6.82;2.83;;;;;;;;;;4926217;29;20052;-80
2023/08/25 04:59:04;;;;;;;2.67;2.47;;;;;;;;;;4926054;29;20067;-80
2023/08/25 05:01:32;;;;;;;4.03;2.67;;;;;;;;;;4938775;29;20059;-79
2023/08/25 05:04:01;;;;;;;6.00;3.38;;;;;;;;;;4952591;28;20392;-80
2023/08/25 05:06:29;;;;;;;4.20;3.10;;;;;;;;;;4932110;29;20047;-80
2023/08/25 05:08:58;;;;;;;6.65;3.03;;;;;;;;;;4926378;29;20056;-80
2023/08/25 05:11:26;;;;;;;5.55;2.70;;;;;;;;;;4930114;29;20036;-80
2023/08/25 05:13:55;;;;;;;3.92;2.53;;;;;;;;;;4932795;29;20054;-80
2023/08/25 05:16:23;;;;;;;2.30;2.10;;;;;;;;;;4945825;28;20074;-81
2023/08/25 05:18:55;;;;;;;5.43;2.50;;;;;;;;;;4930367;29;20052;-79
2023/08/25 05:21:23;;;;;;;4.97;2.30;;;;;;;;;;4930261;29;20127;-80
2023/08/25 05:24:10;;;;;;;4.25;2.72;;;;;;;;;;4931054;29;20039;-79
2023/08/25 05:26:38;;;;;;;4.45;2.55;;;;;;;;;;4942726;28;20383;-80
2023/08/25 05:29:05;;;;;;;5.93;2.30;;;;;;;;;;4949962;29;20128;-80
2023/08/25 05:31:33;;;;;;;3.33;2.65;;;;;;;;;;4945772;29;20040;-79
2023/08/25 05:34:36;;;;;;;7.80;3.20;;;;;;;;;;4916944;29;20052;-80
2023/08/25 05:37:06;;;;;;;3.65;2.85;;;;;;;;;;4927900;29;20047;-80
2023/08/25 05:39:34;;;;;;;5.15;2.92;;;;;;;;;;4932447;29;20136;-80
2023/08/25 05:42:01;;;;;;;3.97;2.72;;;;;;;;;;4926653;29;20058;-80
2023/08/25 05:44:29;;;;;;;5.15;2.55;;;;;;;;;;4930963;29;20059;-80
2023/08/25 05:46:57;;;;;;;5.90;2.67;;;;;;;;;;4933819;29;20099;-80
2023/08/25 05:49:25;;;;;;;5.82;2.25;;;;;;;;;;4942880;29;20040;-80
2023/08/25 05:51:52;;;;;;;3.50;2.40;;;;;;;;;;4932664;29;20487;-80
2023/08/25 05:54:20;;;;;;;3.97;2.45;;;;;;;;;;4930778;29;20055;-81
2023/08/25 05:56:48;;;;;;;3.92;2.33;;;;;;;;;;4925293;29;20115;-81
2023/08/25 05:59:15;;;;;;;4.38;2.40;;;;;;;;;;4930256;29;20150;-81
2023/08/25 06:01:42;;;;;;;6.50;2.70;;;;;;;;;;4944703;29;20059;-81
2023/08/25 06:04:10;;;;;;;6.88;3.03;;;;;;;;;;4931041;29;20058;-80
2023/08/25 06:06:38;;;;;;;5.50;2.60;;;;;;;;;;4923303;29;20554;-81
2023/08/25 06:09:06;;;;;;;4.63;2.60;;;;;;;;;;4930743;29;20051;-81
2023/08/25 06:11:33;;;;;;;4.82;2.20;;;;;;;;;;4921894;29;20048;-81
2023/08/25 06:14:01;;;;;;;5.10;2.30;;;;;;;;;;4933661;29;20051;-81
2023/08/25 06:16:29;;;;;;;3.20;1.88;;;;;;;;;;4925655;29;20419;-80
2023/08/25 06:18:56;;;;;;;10.30;2.15;;;;;;;;;;4950322;29;20840;-80
2023/08/25 06:21:24;;;;;;;2.78;1.88;;;;;;;;;;4930278;29;20102;-81
2023/08/25 06:23:52;;;;;;;4.50;1.80;;;;;;;;;;4932230;29;20047;-81
2023/08/25 06:26:19;;;;;;;2.28;1.63;;;;;;;;;;4926579;29;20044;-81
2023/08/25 06:28:46;;;;;;;5.03;2.10;;;;;;;;;;4921889;29;20397;-81
2023/08/25 06:31:21;;;;;;;2.88;1.80;;;;;;;;;;4917814;29;20048;-81
2023/08/25 06:33:52;;;;;;;3.13;1.92;;;;;;;;;;4927341;29;20060;-79
2023/08/25 06:36:19;;;;;;;2.90;2.05;;;;;;;;;;4948877;28;20052;-81
2023/08/25 06:38:46;;;;;;;1.70;1.60;;;;;;;;;;4927023;29;20111;-80
2023/08/25 06:41:24;;;;;;;2.30;1.67;;;;;;;;;;4930747;29;20044;-81
2023/08/25 06:43:51;;;;;;;3.90;2.00;;;;;;;;;;4930725;29;20040;-80
2023/08/25 06:46:19;;;;;;;2.13;2.00;;;;;;;;;;4932496;29;20039;-81
2023/08/25 06:48:47;;;;;;;5.68;2.50;;;;;;;;;;4933306;29;20071;-81
2023/08/25 06:51:14;;;;;;;4.25;2.40;;;;;;;;;;4923227;29;20058;-82
2023/08/25 06:53:42;;;;;;;5.43;2.55;;;;;;;;;;4923408;29;20546;-79
2023/08/25 06:56:10;;;;;;;4.40;2.60;;;;;;;;;;4926233;29;20260;-79
2023/08/25 06:58:37;;;;;;;2.80;2.47;;;;;;;;;;4919286;29;20079;-80
2023/08/25 07:01:05;;;;;;;5.70;2.63;;;;;;;;;;4919241;29;20056;-79
2023/08/25 07:03:32;;;;;;;4.15;2.78;;;;;;;;;;4923940;29;20082;-80
2023/08/25 07:06:03;;;;;;;4.25;2.70;;;;;;;;;;4940137;28;20062;-80
2023/08/25 07:08:30;;;;;;;4.63;2.35;;;;;;;;;;4914949;29;20495;-80
2023/08/25 07:10:58;;;;;;;3.47;1.98;;;;;;;;;;4922872;29;20040;-80
2023/08/25 07:13:25;;;;;;;7.70;2.92;;;;;;;;;;4931548;29;20067;-79
2023/08/25 07:15:53;;;;;;;2.88;1.90;;;;;;;;;;4940147;29;20063;-80
2023/08/25 07:18:20;;;;;;;2.22;1.95;;;;;;;;;;4931866;29;20512;-80
2023/08/25 07:20:48;;;;;;;4.03;2.17;;;;;;;;;;4932208;29;20086;-80
2023/08/25 07:23:15;;;;;;;4.13;1.80;;;;;;;;;;4933312;29;20060;-80
2023/08/25 07:25:45;;;;;;;3.22;1.88;;;;;;;;;;4947964;28;20047;-79
2023/08/25 07:28:14;;;;;;;2.03;1.63;;;;;;;;;;4933851;29;20080;-80
2023/08/25 07:30:41;;;;;;;3.13;2.10;;;;;;;;;;4935726;29;20083;-80
2023/08/25 07:33:09;;;;;;;4.30;2.50;;;;;;;;;;4934359;29;20036;-81
2023/08/25 07:35:37;;;;;;;4.40;2.40;;;;;;;;;;4934054;29;20055;-81
2023/08/25 07:38:04;;;;;;;3.72;2.40;;;;;;;;;;4935602;29;20054;-83
2023/08/25 07:40:32;;;;;;;3.58;2.45;;;;;;;;;;4938529;29;20101;-81
2023/08/25 07:43:01;;;;;;;2.80;2.60;;;;;;;;;;4937800;29;20585;-80
2023/08/25 07:45:29;;;;;;;6.28;2.58;;;;;;;;;;4939632;29;20521;-80
2023/08/25 07:48:01;;;;;;;4.80;2.28;;;;;;;;;;4939537;29;20462;-81
2023/08/25 07:50:30;;;;;;;3.28;2.45;;;;;;;;;;4939474;29;20059;-81
2023/08/25 07:52:58;;;;;;;3.25;1.98;;;;;;;;;;4941064;29;20039;-80
2023/08/25 07:55:25;;;;;;;3.83;2.28;;;;;;;;;;4936882;29;20136;-80
2023/08/25 07:57:53;;;;;;;5.25;2.10;;;;;;;;;;4943935;29;20052;-79
2023/08/25 08:00:21;;;;;;;4.07;2.25;;;;;;;;;;4944398;29;20063;-80
2023/08/25 08:02:49;;;;;;;2.88;2.08;;;;;;;;;;4954268;29;20066;-80
2023/08/25 08:05:18;;;;;;;5.68;2.67;;;;;;;;;;4953139;28;20051;-80
2023/08/25 08:07:48;;;;;;;2.70;2.03;;;;;;;;;;4939415;29;20052;-80
2023/08/25 08:10:17;;;;;;;2.90;2.05;;;;;;;;;;4941160;29;20063;-80
2023/08/25 08:12:46;;;;;;;4.35;2.20;;;;;;;;;;4941161;29;20100;-80
2023/08/25 08:15:14;;;;;;;2.53;2.15;;;;;;;;;;4935348;29;20060;-80
2023/08/25 08:17:41;;;;;;;3.22;2.40;;;;;;;;;;4935442;29;20052;-80
2023/08/25 08:20:12;;;;;;;4.53;2.40;;;;;;;;;;4935119;29;20221;-82
2023/08/25 08:22:43;;;;;;;3.45;2.10;;;;;;;;;;4933988;29;20307;-81
2023/08/25 08:25:11;;;;;;;3.45;1.90;;;;;;;;;;4933691;29;20048;-81
2023/08/25 08:27:40;;;;;;;2.83;2.20;;;;;;;;;;4935726;28;20048;-80
2023/08/25 08:30:08;;;;;;;3.60;1.83;;;;;;;;;;4937115;29;20054;-81
2023/08/25 08:32:36;;;;;;;2.45;1.75;;;;;;;;;;4933872;29;20091;-81
2023/08/25 08:35:08;;;;;;;5.28;2.17;;;;;;;;;;4949832;29;20481;-80
2023/08/25 08:37:35;;;;;;;;;;;;;;;;;;4936342;29;20052;-80
2023/08/25 08:40:06;;;;;;;3.17;2.08;;;;;;;;;;4938137;29;20448;-80
2023/08/25 08:42:33;;;;;;;2.33;2.13;;;;;;;;;;4935953;29;20063;-79
2023/08/25 08:45:03;;;;;;;2.85;2.13;;;;;;;;;;4937368;29;20691;-80
2023/08/25 08:47:32;;;;;;;7.43;2.47;;;;;;;;;;4937199;29;20117;-80
2023/08/25 08:50:00;;;;;;;3.17;1.95;;;;;;;;;;4937827;29;20063;-81
2023/08/25 08:52:28;;;;;;;3.13;2.42;;;;;;;;;;4937824;29;20068;-81
2023/08/25 08:54:59;;;;;;;4.00;2.15;;;;;;;;;;4938078;29;20055;-82
2023/08/25 08:57:27;;;;;;;2.30;2.10;;;;;;;;;;4937248;29;20090;-79
2023/08/25 08:59:59;;;;;;;3.63;2.40;;;;;;;;;;4939240;29;20081;-80
2023/08/25 09:02:28;;;;;;;4.32;2.58;;;;;;;;;;4937693;29;20047;-80
2023/08/25 09:05:00;;;;;;;5.45;2.85;;;;;;;;;;4938986;29;20082;-80
2023/08/25 09:07:31;;;;;;;3.20;2.00;;;;;;;;;;4939769;29;20051;-80
2023/08/25 09:09:59;;;;;;;6.82;2.58;;;;;;;;;;4939391;29;20071;-80
2023/08/25 09:12:29;;;;;;;3.35;2.70;;;;;;;;;;4954305;29;20123;-80
2023/08/25 09:14:56;;;;;;;3.63;2.72;;;;;;;;;;4937886;29;20114;-80
2023/08/25 09:17:24;;;;;;;2.55;2.35;;;;;;;;;;4936953;29;20569;-80
2023/08/25 09:19:53;;;;;;;4.85;2.08;;;;;;;;;;4938157;29;20111;-79
2023/08/25 09:22:20;;;;;;;3.75;2.00;;;;;;;;;;4937313;29;20260;-80
2023/08/25 09:24:48;;;;;;;3.40;2.17;;;;;;;;;;4931113;29;20143;-78
2023/08/25 09:27:24;;;;;;;2.33;1.90;;;;;;;;;;4929282;29;20060;-83
2023/08/25 09:29:59;;;;;;;3.10;2.25;;;;;;;;;;4930531;29;20052;-78
2023/08/25 09:32:28;;;;;;;3.42;1.85;;;;;;;;;;4926353;29;20044;-79
2023/08/25 09:34:56;;;;;;;4.63;1.85;;;;;;;;;;4931063;29;20055;-78
2023/08/25 09:37:39;;;;;;;3.97;1.80;;;;;;;;;;4931024;29;20044;-77
2023/08/25 09:40:11;;;;;;;1.92;1.40;;;;;;;;;;4931059;29;20469;-81
2023/08/25 09:42:38;;;;;;;;;;;;;;;;;;4931123;29;20055;-78
2023/08/25 09:45:06;;;;;;;2.95;1.58;;;;;;;;;;4930495;29;19923;-80
2023/08/25 09:47:34;;;;;;;2.40;1.45;;;;;;;;;;4931164;29;20138;-80
2023/08/25 09:50:01;;;;;;;1.65;1.30;;;;;;;;;;4930124;29;20052;-77
2023/08/25 09:52:32;;;;;;;4.15;1.45;;;;;;;;;;4936864;29;20055;-80
2023/08/25 09:54:59;;;;;;;1.63;1.52;;;;;;;;;;4936366;29;20379;-80
2023/08/25 09:57:27;;;;;;;2.53;1.30;;;;;;;;;;4937529;29;20091;-80
2023/08/25 09:59:54;;;;;;;2.58;1.67;;;;;;;;;;4937995;29;20055;-80
2023/08/25 10:02:22;;;;;;;2.42;1.40;;;;;;;;;;4937805;29;20082;-81
2023/08/25 10:04:50;;;;;;;2.22;1.65;;;;;;;;;;4937210;29;20051;-79
2023/08/25 10:07:17;;;;;;;2.33;1.58;;;;;;;;;;4935578;29;20573;-79
2023/08/25 10:09:45;;;;;;;2.80;1.40;;;;;;;;;;4935268;29;20139;-79
2023/08/25 10:12:13;;;;;;;4.72;1.25;;;;;;;;;;4937268;29;20055;-79
2023/08/25 10:14:43;;;;;;;2.65;1.50;;;;;;;;;;4943733;29;20051;-80
2023/08/25 10:17:12;;;;;;;4.03;1.20;;;;;;;;;;4930266;29;20078;-80
2023/08/25 10:19:40;;;;;;;3.60;1.80;;;;;;;;;;4938809;29;20553;-80
2023/08/25 10:22:08;;;;;;;3.45;1.45;;;;;;;;;;4938767;29;20048;-81
2023/08/25 10:24:36;;;;;;;3.72;1.60;;;;;;;;;;4935957;29;20051;-80
2023/08/25 10:27:03;;;;;;;2.83;1.52;;;;;;;;;;4938412;29;20052;-81
2023/08/25 10:29:31;;;;;;;1.80;1.50;;;;;;;;;;4940044;29;20116;-81
2023/08/25 10:32:04;;;;;;;5.13;1.60;;;;;;;;;;4939459;29;20048;-80
2023/08/25 10:34:32;;;;;;;3.83;1.55;;;;;;;;;;4938833;29;20169;-81
2023/08/25 10:37:03;;;;;;;3.60;1.80;;;;;;;;;;4940772;29;20055;-80
2023/08/25 10:39:50;;;;;;;2.80;1.63;;;;;;;;;;4937312;29;20070;-80
2023/08/25 10:42:25;;;;;;;3.55;1.60;;;;;;;;;;4931665;29;20502;-80
2023/08/25 10:44:57;;;;;;;3.75;1.73;;;;;;;;;;4937113;29;20103;-81
2023/08/25 10:47:24;;;;;;;2.85;1.50;;;;;;;;;;4938635;29;20422;-80
2023/08/25 10:49:56;;;;;;;4.00;1.70;;;;;;;;;;4936894;29;20429;-81
2023/08/25 10:52:23;;;;;;;3.13;1.75;;;;;;;;;;4935484;29;20058;-80
2023/08/25 10:54:52;;;;;;;3.00;1.80;;;;;;;;;;4939292;29;20055;-80
2023/08/25 10:57:29;;;;;;;3.25;1.88;;;;;;;;;;4939003;29;20373;-81
2023/08/25 10:59:57;;;;;;;3.25;1.70;;;;;;;;;;4937229;29;20474;-81
2023/08/25 11:02:35;;;;;;;3.97;1.80;;;;;;;;;;4938422;29;20114;-81
2023/08/25 11:05:38;;;;;;;3.55;1.88;;;;;;;;;;4937964;29;20056;-80
2023/08/25 11:08:06;;;;;;;3.45;2.00;;;;;;;;;;4899756;29;20504;-81
2023/08/25 11:10:34;;;;;;;2.00;1.40;;;;;;;;;;4925870;29;20051;-81
2023/08/25 11:13:06;;;;;;;1.75;1.45;;;;;;;;;;4938880;29;20083;-80
2023/08/25 11:15:38;;;;;;;4.72;1.60;;;;;;;;;;4941075;29;20052;-80
2023/08/25 11:18:06;;;;;;;3.95;1.50;;;;;;;;;;4940633;29;20386;-81
2023/08/25 11:20:34;;;;;;;2.58;1.38;;;;;;;;;;4965600;28;20055;-81
2023/08/25 11:23:01;;;;;;;2.58;1.60;;;;;;;;;;4941917;29;20063;-80
2023/08/25 11:25:33;;;;;;;3.20;1.60;;;;;;;;;;4940687;29;20048;-80
2023/08/25 11:28:03;;;;;;;2.33;1.50;;;;;;;;;;4941182;29;20291;-81
2023/08/25 11:30:33;;;;;;;3.55;1.50;;;;;;;;;;4942715;29;20043;-80
2023/08/25 11:33:01;;;;;;;2.53;1.55;;;;;;;;;;4942207;29;20403;-82
2023/08/25 11:35:31;;;;;;;2.83;1.45;;;;;;;;;;4942003;29;20082;-81
2023/08/25 11:37:59;;;;;;;2.08;1.40;;;;;;;;;;4941467;29;20062;-81
2023/08/25 11:40:26;;;;;;;3.33;1.73;;;;;;;;;;4940262;29;20435;-80
2023/08/25 11:42:53;;;;;;;3.80;2.08;;;;;;;;;;4940975;29;20062;-81
2023/08/25 11:45:21;;;;;;;2.47;1.20;;;;;;;;;;4943211;29;20087;-82
2023/08/25 11:47:49;;;;;;;1.73;1.63;;;;;;;;;;4932204;29;20052;-81
2023/08/25 11:50:16;;;;;;;4.13;1.50;;;;;;;;;;4939320;29;20498;-81
2023/08/25 11:52:44;;;;;;;2.00;1.50;;;;;;;;;;4939005;29;20077;-81
2023/08/25 11:55:14;;;;;;;2.03;1.50;;;;;;;;;;4939326;29;20404;-81
2023/08/25 11:57:42;;;;;;;2.33;1.40;;;;;;;;;;4940620;29;20050;-80
2023/08/25 12:00:10;;;;;;;1.95;1.63;;;;;;;;;;4938693;29;20135;-81
2023/08/25 12:02:39;;;;;;;2.63;1.73;;;;;;;;;;4938772;29;20203;-82
2023/08/25 12:05:06;;;;;;;1.77;1.60;;;;;;;;;;4939098;29;20475;-81
2023/08/25 12:07:34;;;;;;;1.83;1.73;;;;;;;;;;4940087;29;20044;-81
2023/08/25 12:10:06;;;;;;;2.88;1.90;;;;;;;;;;4938102;29;20122;-80
2023/08/25 12:12:38;;;;;;;1.60;1.50;;;;;;;;;;4955327;29;20052;-81
2023/08/25 12:15:09;;;;;;;3.88;1.67;;;;;;;;;;4939439;29;20071;-81
2023/08/25 12:17:37;;;;;;;;;;;;;;;;;;4938726;29;20058;-81
2023/08/25 12:20:13;;;;;;;1.60;1.50;;;;;;;;;;4939515;29;19926;-81
2023/08/25 12:22:59;;;;;;;3.95;1.55;;;;;;;;;;4936508;29;20075;-81
2023/08/25 12:25:31;;;;;;;3.15;1.63;;;;;;;;;;4933238;29;20458;-80
2023/08/25 12:27:59;;;;;;;2.20;1.67;;;;;;;;;;4937738;29;20086;-81
2023/08/25 12:30:29;;;;;;;3.58;1.67;;;;;;;;;;4928418;29;20086;-81
2023/08/25 12:32:56;;;;;;;3.88;1.67;;;;;;;;;;4937631;29;20055;-80
2023/08/25 12:35:24;;;;;;;2.35;1.60;;;;;;;;;;4939932;28;20088;-80
2023/08/25 12:37:52;;;;;;;4.97;2.10;;;;;;;;;;4939693;29;20055;-79
2023/08/25 12:40:20;;;;;;;1.75;1.65;;;;;;;;;;4939841;29;20043;-81
2023/08/25 12:42:51;;;;;;;1.77;1.38;;;;;;;;;;4955615;29;20075;-80
2023/08/25 12:45:23;;;;;;;3.97;1.98;;;;;;;;;;4940593;29;20063;-80
2023/08/25 12:47:51;;;;;;;1.70;1.55;;;;;;;;;;4936113;29;20154;-80
2023/08/25 12:50:19;;;;;;;3.47;1.80;;;;;;;;;;4935708;29;20075;-80
2023/08/25 12:52:47;;;;;;;3.83;1.80;;;;;;;;;;4963848;23;1439961;-77
2023/08/25 12:55:14;;;;;;;1.95;1.85;;;;;;;;;;4948607;28;20563;-77
2023/08/25 12:57:49;;;;;;;3.53;1.80;;;;;;;;;;4949933;29;20433;-74
2023/08/25 13:00:17;;;;;;;1.67;1.58;;;;;;;;;;4950540;28;20106;-75
2023/08/25 13:02:45;;;;;;;3.35;1.80;;;;;;;;;;4951144;29;20043;-75
2023/08/25 13:05:12;;;;;;;2.22;1.60;;;;;;;;;;4950835;28;20070;-74
2023/08/25 13:07:40;;;;;;;3.72;1.80;;;;;;;;;;4950754;29;20120;-76
2023/08/25 13:10:08;;;;;;;3.30;1.50;;;;;;;;;;4949277;29;20516;-76
2023/08/25 13:12:36;;;;;;;3.50;1.90;;;;;;;;;;4948623;29;20548;-75
2023/08/25 13:15:06;;;;;;;1.80;1.70;;;;;;;;;;4948664;28;20055;-75
2023/08/25 13:17:34;;;;;;;2.00;1.90;;;;;;;;;;4949989;28;20047;-76
2023/08/25 13:20:02;;;;;;;1.95;1.58;;;;;;;;;;4950148;29;20058;-77
2023/08/25 13:22:30;;;;;;;1.77;1.63;;;;;;;;;;4949531;28;20134;-75
2023/08/25 13:24:57;;;;;;;3.83;1.58;;;;;;;;;;4949654;28;20134;-75
2023/08/25 13:27:24;;;;;;;2.88;1.70;;;;;;;;;;4948643;29;20429;-75
2023/08/25 13:29:52;;;;;;;2.30;1.80;;;;;;;;;;4950286;29;20653;-76
2023/08/25 13:32:19;;;;;;;4.32;1.90;;;;;;;;;;4950218;29;20235;-76
2023/08/25 13:34:47;;;;;;;2.35;1.65;;;;;;;;;;4950616;29;20062;-76
2023/08/25 13:37:14;;;;;;;2.15;1.80;;;;;;;;;;4948892;28;20560;-76
2023/08/25 13:39:42;;;;;;;3.25;2.10;;;;;;;;;;4950208;28;20078;-76
2023/08/25 13:42:09;;;;;;;2.10;1.60;;;;;;;;;;4950018;28;20474;-76
2023/08/25 13:44:38;;;;;;;1.98;1.60;;;;;;;;;;4950827;29;20365;-77
2023/08/25 13:47:09;;;;;;;2.25;1.48;;;;;;;;;;4950411;28;20053;-75
2023/08/25 13:49:37;;;;;;;4.32;1.90;;;;;;;;;;4949763;29;20047;-75
2023/08/25 13:52:05;;;;;;;2.90;1.77;;;;;;;;;;4949493;29;20083;-77
2023/08/25 13:54:32;;;;;;;1.83;1.60;;;;;;;;;;4949451;29;20315;-78
2023/08/25 13:57:00;;;;;;;4.10;1.70;;;;;;;;;;4949998;28;20456;-75
2023/08/25 13:59:28;;;;;;;2.17;1.92;;;;;;;;;;4941599;29;20055;-76
2023/08/25 14:01:56;;;;;;;1.83;1.73;;;;;;;;;;4949422;29;20051;-76
2023/08/25 14:04:23;;;;;;;1.80;1.70;;;;;;;;;;4948521;29;20517;-80
2023/08/25 14:06:51;;;;;;;2.15;1.65;;;;;;;;;;4949695;28;20493;-75
2023/08/25 14:09:18;;;;;;;1.90;1.40;;;;;;;;;;4949745;28;20047;-75
2023/08/25 14:11:46;;;;;;;3.22;1.70;;;;;;;;;;4949704;28;20746;-75
2023/08/25 14:14:14;;;;;;;2.45;1.55;;;;;;;;;;4949693;28;20724;-75
2023/08/25 14:16:41;;;;;;;3.72;1.83;;;;;;;;;;4949433;28;20136;-77
2023/08/25 14:19:09;;;;;;;1.98;1.80;;;;;;;;;;4949231;28;20511;-75
2023/08/25 14:21:36;;;;;;;2.28;1.77;;;;;;;;;;4948855;29;20466;-77
2023/08/25 14:24:04;;;;;;;1.67;1.58;;;;;;;;;;4949095;29;20498;-76
2023/08/25 14:26:32;;;;;;;2.25;1.58;;;;;;;;;;4941304;29;20176;-76
2023/08/25 14:28:59;;;;;;;2.45;1.83;;;;;;;;;;4948753;29;20043;-76
2023/08/25 14:31:26;;;;;;;2.17;1.60;;;;;;;;;;4948698;29;20055;-77
2023/08/25 14:33:54;;;;;;;3.88;1.80;;;;;;;;;;4948660;29;20051;-76
2023/08/25 14:36:21;;;;;;;2.13;1.50;;;;;;;;;;4947898;28;20074;-76
2023/08/25 14:38:49;;;;;;;2.67;1.60;;;;;;;;;;4948973;28;20051;-75
2023/08/25 14:41:17;;;;;;;2.80;1.60;;;;;;;;;;4948351;29;20367;-75
2023/08/25 14:43:45;;;;;;;2.10;1.70;;;;;;;;;;4948885;28;20493;-76
2023/08/25 14:46:12;;;;;;;3.88;2.00;;;;;;;;;;4947370;28;20055;-75
2023/08/25 14:48:40;;;;;;;3.15;1.70;;;;;;;;;;4948821;28;20047;-75
2023/08/25 14:51:08;;;;;;;3.75;1.70;;;;;;;;;;4947090;28;20047;-75
2023/08/25 14:53:36;;;;;;;2.22;1.70;;;;;;;;;;4948571;29;20045;-75